Time;durP1;ratioP1;P1;durP2;ratioP2;P2;SDS_P1;SDS_P2;PMS_P1;PMS_P2;Temp;Humidity;BMP_temperature;BMP_pressure;BME280_temperature;BME280_humidity;BME280_pressure;Samples;Min_cycle;Max_cycle;Signal;HPM_P1;HPM_P2
2021/01/23 00:00:57;;;;;;;4.00;3.38;;;5.30;64.30;;;;;;5026951;28;20034;-76
2021/01/23 00:03:24;;;;;;;4.22;3.30;;;5.30;64.30;;;;;;5025517;28;20037;-76
2021/01/23 00:05:49;;;;;;;4.22;3.28;;;5.20;64.20;;;;;;5026270;28;20026;-75
2021/01/23 00:08:15;;;;;;;4.32;3.70;;;5.20;64.20;;;;;;5022210;28;20521;-75
2021/01/23 00:10:40;;;;;;;5.03;3.90;;;5.20;64.30;;;;;;5028885;28;20479;-76
2021/01/23 00:13:06;;;;;;;7.75;4.60;;;5.20;64.40;;;;;;5011683;28;20033;-76
2021/01/23 00:15:32;;;;;;;6.20;3.83;;;5.20;64.40;;;;;;5029381;28;20025;-76
2021/01/23 00:17:57;;;;;;;3.90;3.30;;;5.30;64.50;;;;;;5025846;28;20032;-76
2021/01/23 00:20:23;;;;;;;4.18;3.40;;;5.20;64.40;;;;;;5012839;28;20160;-76
2021/01/23 00:22:50;;;;;;;4.53;3.40;;;5.10;64.30;;;;;;5028110;28;20033;-76
2021/01/23 00:25:16;;;;;;;3.22;2.92;;;5.20;64.20;;;;;;5025290;28;20153;-76
2021/01/23 00:27:41;;;;;;;5.35;3.25;;;5.10;64.00;;;;;;5011873;28;20175;-76
2021/01/23 00:30:08;;;;;;;5.10;3.70;;;5.10;64.00;;;;;;5030301;28;20029;-76
2021/01/23 00:32:33;;;;;;;5.25;3.67;;;5.00;63.90;;;;;;5027045;28;20052;-76
2021/01/23 00:34:59;;;;;;;4.10;3.70;;;5.10;64.70;;;;;;5030645;28;20049;-76
2021/01/23 00:37:24;;;;;;;5.97;3.72;;;5.10;64.30;;;;;;5010950;28;20033;-76
2021/01/23 00:39:50;;;;;;;4.32;3.20;;;5.00;64.40;;;;;;5029966;28;20409;-76
2021/01/23 00:42:15;;;;;;;4.35;3.95;;;5.00;64.40;;;;;;5029420;28;20036;-75
2021/01/23 00:44:41;;;;;;;4.35;3.80;;;5.00;64.30;;;;;;5029325;28;20033;-75
2021/01/23 00:47:06;;;;;;;3.33;3.00;;;5.00;64.20;;;;;;5027092;28;20395;-75
2021/01/23 00:49:32;;;;;;;7.07;3.97;;;5.00;64.10;;;;;;5030141;28;20033;-76
2021/01/23 00:51:57;;;;;;;5.72;3.95;;;5.00;64.10;;;;;;5029493;28;20040;-75
2021/01/23 00:54:23;;;;;;;5.00;3.72;;;4.90;64.10;;;;;;5029810;28;20054;-76
2021/01/23 00:56:48;;;;;;;4.35;3.72;;;4.90;64.10;;;;;;5028927;28;20041;-76
2021/01/23 00:59:14;;;;;;;4.75;3.53;;;4.90;64.20;;;;;;5030313;28;20083;-77
2021/01/23 01:01:39;;;;;;;5.03;3.42;;;4.80;64.10;;;;;;5029126;28;20029;-78
2021/01/23 01:04:05;;;;;;;3.97;3.38;;;4.80;64.30;;;;;;5029922;28;20120;-78
2021/01/23 01:09:14;;;;;;;5.25;4.22;;;4.80;64.80;;;;;;5017822;28;20073;-78
2021/01/23 01:11:39;;;;;;;4.97;4.25;;;4.90;64.40;;;;;;5031187;28;20060;-82
2021/01/23 01:14:05;;;;;;;5.70;3.97;;;4.80;64.20;;;;;;5029682;28;20048;-79
2021/01/23 01:16:31;;;;;;;4.50;3.85;;;4.80;64.20;;;;;;5031513;28;20033;-79
2021/01/23 01:18:57;;;;;;;4.43;3.75;;;4.80;64.00;;;;;;5030245;28;20037;-79
2021/01/23 01:21:22;;;;;;;4.43;3.35;;;4.70;63.90;;;;;;5023398;28;20103;-79
2021/01/23 01:23:48;;;;;;;4.93;4.03;;;4.80;63.90;;;;;;5024953;28;20111;-79
2021/01/23 01:26:13;;;;;;;4.22;3.83;;;4.70;63.90;;;;;;5028756;28;20054;-79
2021/01/23 01:28:39;;;;;;;4.28;3.60;;;4.70;64.00;;;;;;5047359;28;20084;-81
2021/01/23 01:31:04;;;;;;;5.00;4.22;;;4.70;63.90;;;;;;5050823;28;20514;-79
2021/01/23 01:33:30;;;;;;;4.07;3.58;;;4.70;63.90;;;;;;5038898;28;20053;-79
2021/01/23 01:35:55;;;;;;;5.35;3.80;;;4.60;63.80;;;;;;5028865;28;20132;-79
2021/01/23 01:38:21;;;;;;;6.47;4.68;;;4.60;63.90;;;;;;5024877;28;20589;-80
2021/01/23 01:40:46;;;;;;;6.15;4.53;;;4.50;63.90;;;;;;5024673;28;20041;-80
2021/01/23 01:43:12;;;;;;;5.15;4.50;;;4.60;64.10;;;;;;5024988;28;20029;-79
2021/01/23 01:45:37;;;;;;;5.15;4.65;;;4.50;64.20;;;;;;5028469;28;20032;-80
2021/01/23 01:48:04;;;;;;;7.00;4.78;;;4.50;64.40;;;;;;5022538;28;20025;-79
2021/01/23 01:50:29;;;;;;;6.70;4.60;;;4.50;64.50;;;;;;5028342;28;20025;-79
2021/01/23 01:52:54;;;;;;;5.97;4.68;;;4.50;64.70;;;;;;5020646;28;20576;-80
2021/01/23 01:55:31;;;;;;;6.05;4.75;;;4.50;64.80;;;;;;5027838;28;20033;-80
2021/01/23 01:57:57;;;;;;;6.15;4.93;;;4.60;64.90;;;;;;5027294;28;20033;-79
2021/01/23 02:00:23;;;;;;;6.50;4.90;;;4.50;64.70;;;;;;5024325;28;20080;-79
2021/01/23 02:03:10;;;;;;;6.43;4.57;;;4.60;64.70;;;;;;5024431;28;20068;-80
2021/01/23 02:06:02;;;;;;;6.93;4.25;;;4.60;65.00;;;;;;5023416;28;20084;-79
2021/01/23 02:08:31;;;;;;;5.57;4.45;;;4.60;64.90;;;;;;5021693;28;20159;-79
2021/01/23 02:11:05;;;;;;;5.80;4.03;;;4.60;64.80;;;;;;5023537;28;20022;-79
2021/01/23 02:13:36;;;;;;;7.15;5.03;;;4.60;64.90;;;;;;5026369;28;20484;-79
2021/01/23 02:16:08;;;;;;;;;;;4.70;64.90;;;;;;5021349;28;20044;-80
2021/01/23 02:18:41;;;;;;;5.03;4.03;;;4.70;65.60;;;;;;5024747;28;20358;-79
2021/01/23 02:21:34;;;;;;;5.53;4.75;;;4.70;64.70;;;;;;5023899;28;20022;-79
2021/01/23 02:24:03;;;;;;;5.82;4.80;;;4.70;65.10;;;;;;5027263;28;20566;-79
2021/01/23 02:26:46;;;;;;;6.65;4.82;;;4.70;64.70;;;;;;5021015;28;20091;-79
2021/01/23 02:29:20;;;;;;;5.50;4.97;;;4.70;65.00;;;;;;5044105;28;20029;-79
2021/01/23 02:31:54;;;;;;;7.88;4.72;;;4.70;65.20;;;;;;5022487;28;20116;-79
2021/01/23 02:34:23;;;;;;;5.35;4.70;;;4.70;65.10;;;;;;5025714;28;20061;-79
2021/01/23 02:36:50;;;;;;;7.32;5.22;;;4.80;65.10;;;;;;5021620;28;20512;-80
2021/01/23 02:39:17;;;;;;;6.68;5.50;;;4.80;65.00;;;;;;5029061;28;20112;-79
2021/01/23 02:41:43;;;;;;;6.82;4.90;;;4.80;65.00;;;;;;5024553;28;20032;-81
2021/01/23 02:44:09;;;;;;;6.57;5.03;;;4.80;65.00;;;;;;5026151;28;20037;-80
2021/01/23 02:46:35;;;;;;;7.65;5.25;;;4.80;65.00;;;;;;5026478;28;20048;-79
2021/01/23 02:49:01;;;;;;;6.70;5.32;;;4.80;65.10;;;;;;5030028;28;20033;-80
2021/01/23 02:51:43;;;;;;;7.25;5.70;;;4.90;65.10;;;;;;5025442;28;20050;-80
2021/01/23 02:54:15;;;;;;;6.43;4.90;;;4.80;65.00;;;;;;5028050;28;21001;-80
2021/01/23 02:56:43;;;;;;;8.02;5.88;;;4.90;65.10;;;;;;5026721;28;20034;-80
2021/01/23 02:59:11;;;;;;;7.32;5.70;;;4.90;65.00;;;;;;5030180;28;20049;-80
2021/01/23 03:01:41;;;;;;;8.35;6.35;;;5.00;65.10;;;;;;5026418;28;20042;-80
2021/01/23 03:04:07;;;;;;;7.53;5.65;;;4.90;65.00;;;;;;5030771;28;20057;-81
2021/01/23 03:06:35;;;;;;;6.22;4.85;;;4.90;65.00;;;;;;5026602;28;20538;-80
2021/01/23 03:09:19;;;;;;;7.07;5.50;;;5.00;65.60;;;;;;5028832;28;20063;-79
2021/01/23 03:11:44;;;;;;;6.15;5.35;;;5.00;65.40;;;;;;5024112;28;20061;-79
2021/01/23 03:14:10;;;;;;;7.95;6.28;;;5.00;65.00;;;;;;5024911;28;20066;-79
2021/01/23 03:16:36;;;;;;;6.63;5.32;;;5.00;65.00;;;;;;5017369;28;20041;-78
2021/01/23 03:19:03;;;;;;;8.90;6.05;;;5.00;65.00;;;;;;5026921;28;20037;-78
2021/01/23 03:21:28;;;;;;;6.88;5.35;;;5.00;65.00;;;;;;5023712;28;20069;-78
2021/01/23 03:23:54;;;;;;;10.32;6.00;;;5.10;65.00;;;;;;5009973;28;20053;-79
2021/01/23 03:26:19;;;;;;;9.30;5.95;;;5.00;65.00;;;;;;5026637;28;20473;-79
2021/01/23 03:28:44;;;;;;;7.38;5.60;;;5.00;65.00;;;;;;5028027;28;20168;-79
2021/01/23 03:31:10;;;;;;;7.75;5.80;;;5.10;65.10;;;;;;5017273;28;20038;-80
2021/01/23 03:33:35;;;;;;;8.68;5.72;;;5.10;65.10;;;;;;5027874;28;20133;-79
2021/01/23 03:36:01;;;;;;;7.47;5.50;;;5.10;65.10;;;;;;5019540;28;20033;-79
2021/01/23 03:38:26;;;;;;;8.82;5.75;;;5.10;65.10;;;;;;5027539;28;20457;-80
2021/01/23 03:40:52;;;;;;;6.70;5.20;;;5.00;65.00;;;;;;5019196;28;20033;-79
2021/01/23 03:43:17;;;;;;;6.40;5.18;;;5.10;65.10;;;;;;5025232;28;20460;-79
2021/01/23 03:45:43;;;;;;;8.23;5.90;;;5.10;65.10;;;;;;5019496;28;20233;-79
2021/01/23 03:48:08;;;;;;;7.68;5.80;;;5.00;65.10;;;;;;5030173;28;20030;-79
2021/01/23 03:50:34;;;;;;;8.18;5.55;;;5.10;65.20;;;;;;5022981;28;20111;-79
2021/01/23 03:52:59;;;;;;;6.90;5.57;;;5.10;65.20;;;;;;5026824;28;20033;-79
2021/01/23 03:55:25;;;;;;;7.63;5.35;;;5.10;65.20;;;;;;5027092;28;20022;-78
2021/01/23 03:57:50;;;;;;;6.75;5.65;;;5.10;65.20;;;;;;5027566;28;20568;-79
2021/01/23 04:00:16;;;;;;;6.78;5.45;;;5.10;65.20;;;;;;5026670;28;20025;-79
2021/01/23 04:02:42;;;;;;;7.00;5.43;;;5.10;65.10;;;;;;5027435;28;20103;-79
2021/01/23 04:05:08;;;;;;;7.22;6.15;;;5.10;65.10;;;;;;5025537;28;20401;-79
2021/01/23 04:07:34;;;;;;;7.55;5.60;;;5.20;65.10;;;;;;5030241;28;20470;-78
2021/01/23 04:09:59;;;;;;;8.30;5.75;;;5.20;65.10;;;;;;5024061;28;20112;-79
2021/01/23 04:12:24;;;;;;;7.07;5.55;;;5.10;65.00;;;;;;5031221;28;20117;-79
2021/01/23 04:14:50;;;;;;;8.90;5.80;;;5.10;65.00;;;;;;5025706;28;20029;-78
2021/01/23 04:17:15;;;;;;;6.00;5.28;;;5.10;65.10;;;;;;5021942;28;20040;-79
2021/01/23 04:19:41;;;;;;;7.72;5.40;;;5.10;65.10;;;;;;5029968;28;20493;-79
2021/01/23 04:22:06;;;;;;;6.03;5.32;;;5.10;65.10;;;;;;5024968;28;20038;-79
2021/01/23 04:24:32;;;;;;;6.85;5.25;;;5.10;65.10;;;;;;5028898;28;20520;-78
2021/01/23 04:26:57;;;;;;;7.95;5.57;;;5.10;65.10;;;;;;5025940;28;20056;-80
2021/01/23 04:29:23;;;;;;;7.25;5.30;;;5.10;65.10;;;;;;5026786;28;20026;-78
2021/01/23 04:31:48;;;;;;;7.72;5.53;;;5.10;65.10;;;;;;5024994;28;20030;-79
2021/01/23 04:34:14;;;;;;;8.05;5.88;;;5.10;65.10;;;;;;5025154;28;20025;-79
2021/01/23 04:36:39;;;;;;;8.20;5.57;;;5.10;65.10;;;;;;5026159;28;20029;-78
2021/01/23 04:39:05;;;;;;;8.35;5.68;;;5.10;65.10;;;;;;5027481;28;20037;-79
2021/01/23 04:41:31;;;;;;;7.35;5.43;;;5.10;65.60;;;;;;5023033;28;20042;-80
2021/01/23 04:43:56;;;;;;;9.75;6.00;;;5.10;65.10;;;;;;5024009;28;20025;-78
2021/01/23 04:46:22;;;;;;;7.28;5.13;;;5.10;65.10;;;;;;5022619;28;20080;-78
2021/01/23 04:48:47;;;;;;;6.50;5.55;;;5.10;65.10;;;;;;5028049;28;20367;-79
2021/01/23 04:51:13;;;;;;;8.73;5.88;;;5.10;65.10;;;;;;5021677;28;20405;-78
2021/01/23 04:53:38;;;;;;;6.88;5.45;;;5.10;65.10;;;;;;5029180;28;20111;-78
2021/01/23 04:56:05;;;;;;;9.48;6.32;;;5.20;65.20;;;;;;5023975;28;20581;-79
2021/01/23 04:58:31;;;;;;;8.00;5.53;;;5.10;65.60;;;;;;5030037;28;20521;-79
2021/01/23 05:00:56;;;;;;;6.53;5.10;;;5.10;65.10;;;;;;5022118;28;20042;-79
2021/01/23 05:03:22;;;;;;;6.85;5.30;;;5.10;65.10;;;;;;5029829;28;20025;-80
2021/01/23 05:06:04;;;;;;;6.43;5.47;;;5.10;65.20;;;;;;5024598;28;20038;-79
2021/01/23 05:08:37;;;;;;;7.93;5.03;;;5.00;65.50;;;;;;5026907;28;20041;-78
2021/01/23 05:11:03;;;;;;;7.85;5.78;;;5.10;65.30;;;;;;5023018;28;20379;-79
2021/01/23 05:13:29;;;;;;;7.50;5.80;;;5.10;65.20;;;;;;5029311;28;20034;-79
2021/01/23 05:15:54;;;;;;;8.02;5.65;;;5.10;65.20;;;;;;5020364;28;20052;-78
2021/01/23 05:18:20;;;;;;;6.75;5.28;;;5.10;65.20;;;;;;5029718;28;20051;-78
2021/01/23 05:20:53;;;;;;;6.97;5.10;;;5.10;65.20;;;;;;5024862;28;20088;-78
2021/01/23 05:23:23;;;;;;;10.43;5.55;;;5.10;65.20;;;;;;5026189;28;20053;-78
2021/01/23 05:25:53;;;;;;;6.80;5.30;;;5.00;65.20;;;;;;5023952;28;20033;-78
2021/01/23 05:28:35;;;;;;;8.18;5.75;;;5.00;65.10;;;;;;5039922;28;20030;-79
2021/01/23 05:31:02;;;;;;;8.32;6.15;;;5.10;65.40;;;;;;5032303;28;20109;-79
2021/01/23 05:33:29;;;;;;;6.57;5.10;;;5.00;65.20;;;;;;5032087;28;20409;-79
2021/01/23 05:35:59;;;;;;;8.25;5.60;;;5.10;65.30;;;;;;5019467;28;20018;-79
2021/01/23 05:38:28;;;;;;;7.53;5.68;;;5.00;65.30;;;;;;5027451;28;20113;-79
2021/01/23 05:40:56;;;;;;;6.72;5.47;;;5.00;65.30;;;;;;5018170;28;20029;-78
2021/01/23 05:43:30;;;;;;;8.93;5.45;;;5.00;65.20;;;;;;5028962;28;20026;-78
2021/01/23 05:45:55;;;;;;;7.05;5.13;;;5.00;65.40;;;;;;5020486;28;20630;-79
2021/01/23 05:48:21;;;;;;;9.00;6.18;;;5.00;65.30;;;;;;5027947;28;20116;-79
2021/01/23 05:50:47;;;;;;;8.30;5.88;;;5.00;65.30;;;;;;5021761;28;20030;-79
2021/01/23 05:53:12;;;;;;;8.63;5.93;;;5.00;65.30;;;;;;5023310;28;20048;-78
2021/01/23 05:55:38;;;;;;;7.95;5.45;;;5.00;65.40;;;;;;5023589;28;20032;-79
2021/01/23 05:58:03;;;;;;;8.18;5.93;;;5.10;65.40;;;;;;5027031;28;20436;-78
2021/01/23 06:00:29;;;;;;;9.68;6.13;;;5.10;65.40;;;;;;5014694;28;20542;-79
2021/01/23 06:02:55;;;;;;;7.40;5.70;;;5.00;65.30;;;;;;5025274;28;20029;-79
2021/01/23 06:05:21;;;;;;;7.38;5.88;;;5.00;65.30;;;;;;5021781;28;20042;-79
2021/01/23 06:07:48;;;;;;;8.85;6.03;;;5.10;65.30;;;;;;5024022;28;20123;-78
2021/01/23 06:10:22;;;;;;;8.13;5.85;;;5.10;65.30;;;;;;5020828;28;20038;-79
2021/01/23 06:12:48;;;;;;;7.65;5.68;;;5.10;65.50;;;;;;5025514;28;20851;-78
2021/01/23 06:15:36;;;;;;;7.82;5.70;;;5.00;65.20;;;;;;5019502;28;20037;-79
2021/01/23 06:18:27;;;;;;;7.97;5.47;;;5.00;65.60;;;;;;5021901;28;20042;-79
2021/01/23 06:20:59;;;;;;;8.18;5.63;;;5.10;65.40;;;;;;5019676;28;20038;-78
2021/01/23 06:23:51;;;;;;;6.47;5.10;;;5.00;65.20;;;;;;5024448;28;20041;-79
2021/01/23 06:26:18;;;;;;;8.20;6.10;;;5.00;65.70;;;;;;5019071;28;20049;-79
2021/01/23 06:28:44;;;;;;;9.38;6.28;;;5.00;65.20;;;;;;5022424;28;20026;-79
2021/01/23 06:31:29;;;;;;;8.75;5.90;;;5.00;65.20;;;;;;5017414;28;20026;-81
2021/01/23 06:33:55;;;;;;;6.85;5.57;;;5.00;65.70;;;;;;5022448;28;20030;-78
2021/01/23 06:36:22;;;;;;;9.18;5.90;;;5.00;65.20;;;;;;5018386;28;20843;-79
2021/01/23 06:39:08;;;;;;;8.20;5.97;;;5.00;65.30;;;;;;5023963;28;20030;-78
2021/01/23 06:41:37;;;;;;;7.65;5.90;;;4.90;65.50;;;;;;5019472;28;20033;-79
2021/01/23 06:44:06;;;;;;;8.80;5.97;;;5.00;65.30;;;;;;5024461;28;20453;-79
2021/01/23 06:46:33;;;;;;;7.80;5.75;;;5.00;65.30;;;;;;5026012;28;20040;-80
2021/01/23 06:49:06;;;;;;;9.90;6.90;;;5.00;65.20;;;;;;5031606;28;20028;-81
2021/01/23 06:51:32;;;;;;;8.82;6.25;;;5.00;65.40;;;;;;5031064;28;20033;-82
2021/01/23 06:54:17;;;;;;;8.20;6.45;;;4.90;65.10;;;;;;5030275;28;20034;-80
2021/01/23 06:56:47;;;;;;;9.85;6.40;;;4.90;65.50;;;;;;5030366;28;20034;-81
2021/01/23 06:59:27;;;;;;;7.68;5.78;;;4.90;65.20;;;;;;5027079;28;20030;-80
2021/01/23 07:02:08;;;;;;;11.63;5.70;;;4.90;65.40;;;;;;5030255;28;20063;-79
2021/01/23 07:04:36;;;;;;;8.55;5.55;;;4.90;65.40;;;;;;5021833;28;20485;-79
2021/01/23 07:07:08;;;;;;;6.85;4.75;;;4.80;65.10;;;;;;5081028;22;20045;-73
2021/01/23 07:09:54;;;;;;;8.57;5.10;;;4.80;65.20;;;;;;5040393;28;20033;-76
2021/01/23 07:12:42;;;;;;;8.63;5.80;;;4.90;65.50;;;;;;5048832;28;20029;-75
2021/01/23 07:15:12;;;;;;;10.38;6.05;;;4.80;65.50;;;;;;5048345;28;20461;-75
2021/01/23 07:17:38;;;;;;;6.28;4.97;;;4.80;65.20;;;;;;5050149;28;20569;-77
2021/01/23 07:20:16;;;;;;;7.57;5.63;;;4.80;65.20;;;;;;5052272;28;20482;-76
2021/01/23 07:22:43;;;;;;;7.45;4.70;;;4.80;65.30;;;;;;5053508;28;20036;-76
2021/01/23 07:25:12;;;;;;;8.25;5.82;;;4.80;65.20;;;;;;5052676;28;20029;-75
2021/01/23 07:27:38;;;;;;;8.63;5.57;;;4.80;65.30;;;;;;5047514;28;20037;-74
2021/01/23 07:30:14;;;;;;;6.80;5.55;;;4.70;65.20;;;;;;5048892;28;20049;-75
2021/01/23 07:32:41;;;;;;;7.88;5.38;;;4.80;65.70;;;;;;5058136;28;20040;-75
2021/01/23 07:35:08;;;;;;;6.25;5.35;;;4.80;65.20;;;;;;5051042;28;20068;-76
2021/01/23 07:37:57;;;;;;;7.43;5.70;;;4.70;65.20;;;;;;5052274;28;20048;-74
2021/01/23 07:40:25;;;;;;;8.40;5.80;;;4.80;65.60;;;;;;5042859;28;20036;-75
2021/01/23 07:42:55;;;;;;;7.75;5.72;;;4.70;65.10;;;;;;5040585;28;20083;-75
2021/01/23 07:45:20;;;;;;;7.32;5.57;;;4.70;65.20;;;;;;5045925;28;20042;-77
2021/01/23 07:48:02;;;;;;;6.60;5.32;;;4.70;65.20;;;;;;5045648;28;20480;-76
2021/01/23 07:50:37;;;;;;;8.32;5.47;;;4.70;65.50;;;;;;5045033;28;20033;-73
2021/01/23 07:53:19;;;;;;;7.70;5.28;;;4.60;65.50;;;;;;5046392;28;20040;-76
2021/01/23 07:55:45;;;;;;;7.53;5.25;;;4.60;65.60;;;;;;5050401;28;20036;-74
2021/01/23 07:58:11;;;;;;;6.45;4.85;;;4.70;65.40;;;;;;5053508;28;20029;-75
2021/01/23 08:00:37;;;;;;;6.80;5.00;;;4.60;65.40;;;;;;5049939;28;20586;-76
2021/01/23 08:03:04;;;;;;;8.65;6.00;;;4.60;65.40;;;;;;5047927;28;20128;-75
2021/01/23 08:05:50;;;;;;;6.55;5.25;;;4.70;65.40;;;;;;5053250;28;20090;-76
2021/01/23 08:08:28;;;;;;;7.93;5.75;;;4.60;65.70;;;;;;5044772;28;20067;-80
2021/01/23 08:10:54;;;;;;;7.72;5.05;;;4.60;65.70;;;;;;5045378;28;20112;-78
2021/01/23 08:13:23;;;;;;;6.18;4.97;;;4.60;65.50;;;;;;5050598;28;20128;-71
2021/01/23 08:15:49;;;;;;;8.32;5.85;;;4.60;65.60;;;;;;5043352;28;20313;-74
2021/01/23 08:18:16;;;;;;;7.53;5.78;;;4.70;65.70;;;;;;5040879;28;20041;-75
2021/01/23 08:20:42;;;;;;;6.57;5.18;;;4.70;65.80;;;;;;5044888;28;20534;-75
2021/01/23 08:23:15;;;;;;;6.95;5.55;;;4.70;65.80;;;;;;5044415;28;20025;-75
2021/01/23 08:25:54;;;;;;;6.53;5.70;;;4.70;66.10;;;;;;5044268;28;20029;-76
2021/01/23 08:28:32;;;;;;;8.70;5.88;;;4.70;66.30;;;;;;5044877;28;20044;-75
2021/01/23 08:31:20;;;;;;;6.38;4.95;;;4.80;66.50;;;;;;5042005;28;20420;-73
2021/01/23 08:33:54;;;;;;;7.38;5.63;;;4.80;66.50;;;;;;5047422;28;20494;-77
2021/01/23 08:36:19;;;;;;;6.05;4.80;;;4.90;66.20;;;;;;5052221;28;20580;-79
2021/01/23 08:38:46;;;;;;;7.57;6.13;;;4.90;66.20;;;;;;5053717;28;20233;-76
2021/01/23 08:41:11;;;;;;;6.13;4.85;;;4.90;66.30;;;;;;5056753;28;20021;-75
2021/01/23 08:43:37;;;;;;;6.65;5.10;;;5.00;66.40;;;;;;5055499;28;20391;-75
2021/01/23 08:46:02;;;;;;;8.27;5.85;;;5.10;66.40;;;;;;5051602;28;20074;-76
2021/01/23 08:48:28;;;;;;;8.60;5.80;;;5.10;66.50;;;;;;5043178;28;20063;-77
2021/01/23 08:50:54;;;;;;;7.47;5.78;;;5.10;66.50;;;;;;5056302;28;20021;-75
2021/01/23 08:53:19;;;;;;;6.57;5.30;;;5.20;66.60;;;;;;5057277;28;20039;-76
2021/01/23 08:55:45;;;;;;;7.43;5.57;;;5.20;66.60;;;;;;5051481;28;20036;-77
2021/01/23 08:58:10;;;;;;;6.03;4.93;;;5.30;66.60;;;;;;5052674;28;20394;-73
2021/01/23 09:00:36;;;;;;;6.65;5.85;;;5.30;66.60;;;;;;5054791;28;20033;-75
2021/01/23 09:03:02;;;;;;;6.38;4.63;;;5.40;66.60;;;;;;5052476;28;20071;-77
2021/01/23 09:05:28;;;;;;;8.73;5.35;;;5.60;66.70;;;;;;5056552;28;20440;-74
2021/01/23 09:07:54;;;;;;;8.10;5.85;;;5.50;66.60;;;;;;5054796;28;20037;-75
2021/01/23 09:10:20;;;;;;;7.85;4.95;;;5.50;66.60;;;;;;5054394;28;20132;-77
2021/01/23 09:12:47;;;;;;;7.43;5.50;;;5.50;66.50;;;;;;5055405;28;20037;-75
2021/01/23 09:15:13;;;;;;;7.13;5.65;;;5.60;66.60;;;;;;5053807;28;20025;-75
2021/01/23 09:17:39;;;;;;;5.68;4.95;;;5.60;66.50;;;;;;5054574;28;20037;-75
2021/01/23 09:20:06;;;;;;;7.72;5.13;;;5.70;66.60;;;;;;5057808;28;20020;-75
2021/01/23 09:22:32;;;;;;;6.03;4.55;;;5.70;66.50;;;;;;5053322;28;20120;-73
2021/01/23 09:24:59;;;;;;;5.15;4.60;;;5.80;66.60;;;;;;5039886;28;20115;-75
2021/01/23 09:27:25;;;;;;;8.13;5.57;;;5.80;66.50;;;;;;5053512;28;20025;-75
2021/01/23 09:29:50;;;;;;;5.13;4.25;;;5.80;66.50;;;;;;5052424;28;20048;-76
2021/01/23 09:32:17;;;;;;;7.28;5.28;;;5.80;66.50;;;;;;5044722;28;20444;-76
2021/01/23 09:34:43;;;;;;;5.45;4.30;;;5.90;66.50;;;;;;5051017;28;20033;-76
2021/01/23 09:37:08;;;;;;;5.13;3.92;;;6.00;66.50;;;;;;5047500;28;20132;-76
2021/01/23 09:39:34;;;;;;;6.43;4.78;;;6.00;66.50;;;;;;5049779;28;20037;-76
2021/01/23 09:42:00;;;;;;;5.35;4.70;;;6.00;66.60;;;;;;5060515;28;20025;-78
2021/01/23 09:44:26;;;;;;;5.97;4.65;;;6.10;66.70;;;;;;5049804;28;20060;-75
2021/01/23 09:46:52;;;;;;;6.15;4.78;;;6.10;66.60;;;;;;5050929;28;20032;-76
2021/01/23 09:49:17;;;;;;;6.22;4.63;;;6.10;66.60;;;;;;5054019;28;20032;-77
2021/01/23 09:51:43;;;;;;;5.03;4.05;;;6.20;66.70;;;;;;5057423;28;20032;-77
2021/01/23 09:54:09;;;;;;;7.25;4.47;;;6.20;66.70;;;;;;5052415;28;20517;-78
2021/01/23 09:56:34;;;;;;;5.85;4.10;;;6.20;66.70;;;;;;5048760;28;20049;-74
2021/01/23 09:59:00;;;;;;;5.32;4.28;;;6.30;66.70;;;;;;5044157;28;20104;-76
2021/01/23 10:01:25;;;;;;;5.00;3.45;;;6.30;66.70;;;;;;5040638;28;20025;-76
2021/01/23 10:03:51;;;;;;;5.97;4.13;;;6.30;66.70;;;;;;5051754;28;20041;-76
2021/01/23 10:06:16;;;;;;;5.70;4.50;;;6.40;66.80;;;;;;5053418;28;20146;-75
2021/01/23 10:08:42;;;;;;;4.60;3.67;;;6.40;66.70;;;;;;5051486;28;20029;-76
2021/01/23 10:11:07;;;;;;;4.53;3.97;;;6.50;66.80;;;;;;5051620;28;20490;-74
2021/01/23 10:13:33;;;;;;;4.20;3.70;;;6.50;66.80;;;;;;5045499;28;20025;-75
2021/01/23 10:15:58;;;;;;;4.30;3.53;;;6.60;66.90;;;;;;5044115;28;20032;-73
2021/01/23 10:18:24;;;;;;;4.93;3.72;;;6.60;66.90;;;;;;5047928;28;20104;-77
2021/01/23 10:20:49;;;;;;;4.30;3.42;;;6.70;67.00;;;;;;5050342;28;20526;-76
2021/01/23 10:23:15;;;;;;;3.92;3.47;;;6.70;67.00;;;;;;5046204;28;20029;-76
2021/01/23 10:25:40;;;;;;;4.40;3.30;;;6.80;67.00;;;;;;5046526;28;20040;-77
2021/01/23 10:28:06;;;;;;;4.13;3.67;;;6.80;66.90;;;;;;5047246;28;20398;-76
2021/01/23 10:30:31;;;;;;;4.28;3.38;;;6.90;67.00;;;;;;5048753;28;20172;-76
2021/01/23 10:32:57;;;;;;;4.45;3.50;;;6.90;67.00;;;;;;5047474;28;20517;-76
2021/01/23 10:35:22;;;;;;;4.38;2.90;;;7.00;67.10;;;;;;5046624;28;20025;-76
2021/01/23 10:37:48;;;;;;;4.03;3.35;;;7.00;67.10;;;;;;5034163;28;20048;-76
2021/01/23 10:40:14;;;;;;;5.45;3.00;;;7.10;67.10;;;;;;5034652;28;20045;-77
2021/01/23 10:42:39;;;;;;;4.78;3.10;;;7.10;67.10;;;;;;5048403;28;20041;-74
2021/01/23 10:45:07;;;;;;;6.10;3.88;;;7.20;67.10;;;;;;5046858;28;20033;-75
2021/01/23 10:47:34;;;;;;;6.82;3.33;;;7.20;67.50;;;;;;5022833;28;20029;-77
2021/01/23 10:50:00;;;;;;;3.53;3.15;;;7.30;67.00;;;;;;5045218;28;20444;-78
2021/01/23 10:52:25;;;;;;;4.55;3.22;;;7.30;66.80;;;;;;5046273;28;20033;-78
2021/01/23 10:54:51;;;;;;;5.45;3.47;;;7.40;66.80;;;;;;5049023;28;20037;-75
2021/01/23 10:57:17;;;;;;;4.05;2.85;;;7.40;66.70;;;;;;5044666;28;20091;-76
2021/01/23 10:59:42;;;;;;;3.35;2.63;;;7.40;66.80;;;;;;5051032;28;20029;-75
2021/01/23 11:02:08;;;;;;;3.90;3.35;;;7.50;66.90;;;;;;5046946;28;20032;-73
2021/01/23 11:04:33;;;;;;;4.43;3.75;;;7.40;66.90;;;;;;5048215;28;20124;-76
2021/01/23 11:06:59;;;;;;;3.80;2.97;;;7.50;67.00;;;;;;5052637;28;20542;-74
2021/01/23 11:09:24;;;;;;;3.95;2.92;;;7.60;67.10;;;;;;5048829;28;20032;-75
2021/01/23 11:11:50;;;;;;;3.60;2.97;;;7.60;67.10;;;;;;5055850;28;20033;-76
2021/01/23 11:14:15;;;;;;;4.35;3.72;;;7.70;67.20;;;;;;5049117;28;20058;-79
2021/01/23 11:16:41;;;;;;;3.90;3.03;;;7.70;67.20;;;;;;5049516;28;20124;-74
2021/01/23 11:19:06;;;;;;;5.07;3.15;;;7.70;67.10;;;;;;5045175;28;20029;-73
2021/01/23 11:21:32;;;;;;;3.75;3.10;;;7.80;67.10;;;;;;5045396;28;20044;-77
2021/01/23 11:23:57;;;;;;;4.32;3.40;;;7.90;67.10;;;;;;5050748;28;20033;-73
2021/01/23 11:26:23;;;;;;;3.83;3.17;;;7.90;67.10;;;;;;5052021;28;20615;-74
2021/01/23 11:28:48;;;;;;;3.38;2.58;;;7.90;67.10;;;;;;5055912;28;20032;-75
2021/01/23 11:31:15;;;;;;;5.72;3.05;;;8.00;67.10;;;;;;5046474;28;20029;-76
2021/01/23 11:33:41;;;;;;;4.20;3.22;;;8.10;67.20;;;;;;5053740;28;20024;-76
2021/01/23 11:36:07;;;;;;;6.95;4.30;;;8.10;67.10;;;;;;5052837;28;20063;-77
2021/01/23 11:38:34;;;;;;;4.50;3.40;;;8.20;67.10;;;;;;5052965;28;20032;-74
2021/01/23 11:41:00;;;;;;;3.90;3.42;;;8.20;67.10;;;;;;5056002;28;20044;-74
2021/01/23 11:43:25;;;;;;;3.97;3.58;;;8.20;67.10;;;;;;5050784;28;20406;-76
2021/01/23 11:45:51;;;;;;;3.63;3.10;;;8.40;67.30;;;;;;5051714;28;20037;-75
2021/01/23 11:48:16;;;;;;;4.03;3.35;;;8.40;67.30;;;;;;5050523;28;20435;-76
2021/01/23 11:50:42;;;;;;;4.50;3.10;;;8.50;67.20;;;;;;5054869;28;20021;-76
2021/01/23 11:53:07;;;;;;;3.92;2.80;;;8.50;67.00;;;;;;5054249;28;20029;-75
2021/01/23 11:55:33;;;;;;;3.80;2.70;;;8.60;67.10;;;;;;5052224;28;20055;-74
2021/01/23 11:57:58;;;;;;;3.20;2.80;;;8.60;67.20;;;;;;5058353;28;20497;-76
2021/01/23 12:00:24;;;;;;;4.43;2.92;;;8.70;67.40;;;;;;5051980;28;20033;-76
2021/01/23 12:02:50;;;;;;;5.88;2.85;;;8.70;67.40;;;;;;5054864;28;20052;-77
2021/01/23 12:05:19;;;;;;;3.08;2.60;;;8.80;67.60;;;;;;5048726;28;20025;-76
2021/01/23 12:07:46;;;;;;;3.03;2.50;;;9.00;67.70;;;;;;5057890;28;20025;-74
2021/01/23 12:10:12;;;;;;;2.70;2.50;;;9.00;67.80;;;;;;5055535;28;20021;-76
2021/01/23 12:12:38;;;;;;;4.07;2.60;;;9.00;67.80;;;;;;5057602;28;20086;-73
2021/01/23 12:15:04;;;;;;;2.90;2.58;;;9.10;67.90;;;;;;5055523;28;20029;-77
2021/01/23 12:17:29;;;;;;;4.15;2.78;;;9.20;68.10;;;;;;5052148;28;20116;-76
2021/01/23 12:19:55;;;;;;;3.17;2.38;;;9.40;67.80;;;;;;5056914;28;20140;-74
2021/01/23 12:22:20;;;;;;;4.82;3.45;;;9.40;67.60;;;;;;5057410;28;20036;-76
2021/01/23 12:24:46;;;;;;;3.10;2.67;;;9.50;67.40;;;;;;5055240;28;20020;-78
2021/01/23 12:27:12;;;;;;;3.40;2.72;;;9.50;67.10;;;;;;5056071;28;20103;-76
2021/01/23 12:29:38;;;;;;;2.75;2.30;;;9.60;66.90;;;;;;5052101;28;20557;-74
2021/01/23 12:32:06;;;;;;;3.28;2.65;;;9.60;66.80;;;;;;5054111;28;20128;-74
2021/01/23 12:34:32;;;;;;;3.55;2.83;;;9.70;66.60;;;;;;5052201;28;20032;-74
2021/01/23 12:36:58;;;;;;;3.30;2.72;;;9.70;66.40;;;;;;5057845;28;20035;-76
2021/01/23 12:39:23;;;;;;;4.80;2.72;;;9.70;66.20;;;;;;5055925;28;20483;-76
2021/01/23 12:41:50;;;;;;;3.40;2.33;;;9.70;66.10;;;;;;5061131;28;20432;-78
2021/01/23 12:44:15;;;;;;;2.63;2.42;;;9.70;66.20;;;;;;5051351;28;20021;-77
2021/01/23 12:46:41;;;;;;;2.75;2.13;;;9.80;66.40;;;;;;5058054;28;20048;-76
2021/01/23 12:49:06;;;;;;;3.80;2.83;;;9.80;66.50;;;;;;5030355;28;20587;-74
2021/01/23 12:51:32;;;;;;;2.78;2.22;;;9.80;66.60;;;;;;5046860;28;20029;-75
2021/01/23 12:53:57;;;;;;;4.57;3.17;;;9.80;66.60;;;;;;5045550;28;20047;-76
2021/01/23 12:56:23;;;;;;;3.75;3.13;;;9.90;66.60;;;;;;5041961;28;20061;-77
2021/01/23 12:58:49;;;;;;;3.47;3.15;;;9.90;66.50;;;;;;5045069;28;20071;-77
2021/01/23 13:01:14;;;;;;;3.20;2.78;;;10.00;66.40;;;;;;5042378;28;20029;-80
2021/01/23 13:03:40;;;;;;;2.90;2.40;;;10.10;66.40;;;;;;5048754;28;20530;-78